• Join FlightAware (Why Join?)
  • Login
  • US Flag 
Rudolph Flight #1: Arrived! 
02:19AM EST


 

Airport Tracker/Info


-or-


 

Live Flight TrackerFlight Track Log ✈ LNI33 ✈ 16-Mar-2014 ✈ WADD / DPS - WIII / CGK

Flight Track Log - Related Links

Times and Time Zones

All times are in EDT time to prevent confusion due to time zone crossing. See the LNI33 flight status page for this flight to view local times or setup timezone preferences in your user account.

Time Position Orientation Groundspeed Altitude Reporting Facility
EDT Latitude Longitude Course Direction KTS MPH feet Rate Location/Type
07:05AM -7.8971 113.9362 294° West 482 555 33,800  Level FlightAware ADS-B
07:06AM -7.8530 113.8374 294° West 481 554 34,800 1,020 Climbing FlightAware ADS-B
07:07AM -7.8021 113.7235 294° West 479 551 35,400 1,020 Climbing FlightAware ADS-B
07:07AM -7.7769 113.6673 294° West 474 545 36,000 360 Climbing FlightAware ADS-B
07:08AM -7.7238 113.5487 294° West 468 539 36,000  Level FlightAware ADS-B
07:09AM -7.6968 113.4887 294° West 469 540 36,000  Level FlightAware ADS-B
07:09AM -7.6679 113.4244 294° West 469 540 36,000  Level FlightAware ADS-B
07:10AM -7.6384 113.3588 294° West 469 540 36,000  Level FlightAware ADS-B (RPLS / SGL)
07:10AM -7.6112 113.2978 294° West 469 540 36,000  Level FlightAware ADS-B (RPLS / SGL)
07:11AM -7.5810 113.2309 294° West 471 542 36,000  Level FlightAware ADS-B (RPLS / SGL)
07:12AM -7.5676 113.2009 294° West 473 544 36,000  Level FlightAware ADS-B
07:12AM -7.5091 113.0707 294° West 476 548 36,000  Level FlightAware ADS-B
07:13AM -7.4700 112.9839 294° West 478 550 36,000  Level FlightAware ADS-B (RPLS / SGL)
07:14AM -7.4326 112.9010 294° West 477 549 36,000  Level FlightAware ADS-B
07:14AM -7.3984 112.8255 294° West 477 549 36,000  Level FlightAware ADS-B
07:15AM -7.3692 112.7609 294° West 476 548 36,000  Level FlightAware ADS-B
07:15AM -7.3573 112.7342 294° West 476 548 36,000  Level FlightAware ADS-B
07:16AM -7.3106 112.6295 294° West 476 548 36,000  Level FlightAware ADS-B (RPLS / SGL)
07:17AM -7.3106 112.6295 294° West 477 549 36,000  Level FlightAware ADS-B (RPLS / SGL)
07:18AM -7.2455 112.4839 294° West 477 549 36,000  Level FlightAware ADS-B
07:20AM -7.2455 112.4839 294° West 475 547 36,000  Level FlightAware ADS-B
07:22AM -7.1919 112.1960 281° West  Level Estimated
07:23AM -7.1618 112.0346 281° West  Level Estimated
07:24AM -7.1317 111.8733 281° West  Level Estimated
07:25AM -7.1015 111.7119 281° West  Level Estimated
07:26AM -7.0712 111.5506 281° West  Level Estimated
07:27AM -7.0409 111.3893 281° West  Level Estimated
07:28AM -7.0105 111.2280 281° West  Level Estimated
07:29AM -6.9800 111.0667 281° West  Level Estimated
07:30AM -6.9495 110.9055 281° West  Level Estimated
07:31AM -6.9190 110.7443 281° West  Level Estimated
07:32AM -6.8884 110.5831 281° West  Level Estimated
07:33AM -6.8577 110.4219 281° West  Level Estimated
07:34AM -6.8270 110.2607 281° West  Level Estimated
07:35AM -6.7963 110.0996 281° West  Level Estimated
07:36AM -6.7655 109.9385 281° West  Level Estimated
07:37AM -6.7346 109.7774 281° West  Level Estimated
07:38AM -6.7037 109.6163 281° West  Level Estimated
07:39AM -6.6727 109.4552 281° West  Level Estimated
07:40AM -6.6417 109.2942 281° West  Level Estimated
07:41AM -6.6106 109.1332 281° West  Level Estimated
07:42AM -6.5795 108.9722 281° West  Level Estimated
07:43AM -6.5483 108.8112 281° West  Level Estimated
07:44AM -6.5170 108.6503 281° West  Level Estimated
07:45AM -6.4858 108.4893 281° West  Level Estimated
07:46AM -6.4544 108.3284 281° West  Level Estimated
07:47AM -6.4230 108.1675 281° West  Level Estimated
07:48AM -6.3916 108.0066 281° West  Level Estimated
07:49AM -6.3601 107.8458 281° West  Level Estimated
07:50AM -6.3286 107.6849 281° West  Level Estimated
07:51AM -6.2970 107.5241 281° West  Level Estimated
07:52AM -6.2654 107.3633 281° West  Level Estimated
07:53AM -6.2337 107.2026 281° West  Level Estimated
07:54AM -6.2020 107.0418 281° West  Level Estimated
07:55AM -6.1702 106.8811 281° West  Level Estimated
07:56AM -6.1383 106.7203 281° West  Level Estimated
07:57AM -6.1256 106.6559 281° West  Level Estimated
07:58AM -6.1256 106.6559 North  Level Estimated
07:59AM -6.1256 106.6559 North  Level Estimated
08:00AM -6.1256 106.6559 North  Level Estimated
08:01AM -6.1256 106.6559 North  Level Estimated
08:02AM -6.1256 106.6559 North  Level Estimated
08:03AM -6.1256 106.6559 North  Level Estimated
08:04AM -6.1256 106.6559 North  Level Estimated
08:05AM -6.1256 106.6559 North  Level Estimated
08:06AM -6.1256 106.6559 North  Level Estimated
08:07AM -6.1256 106.6559 North  Level Estimated
08:08AM -6.1256 106.6559 North  Level Estimated
08:09AM -6.1256 106.6559 North  Level Estimated
08:10AM -6.1256 106.6559 North  Level Estimated
08:11AM -6.1256 106.6559 North  Level Estimated
08:12AM -6.1256 106.6559 North  Level Estimated
08:13AM -6.1256 106.6559 North  Level Estimated
08:14AM -6.1256 106.6559 North  Level Estimated
08:15AM -6.1256 106.6559 North  Level Estimated
08:16AM -6.1256 106.6559 North  Level Estimated